createdAt,value
2023-01-11T00:00:27.228Z,6.20
2023-01-11T00:03:00.311Z,6.20
2023-01-11T00:05:27.113Z,6.20
2023-01-11T00:07:54.017Z,6.20
2023-01-11T00:10:20.997Z,6.20
2023-01-11T00:12:48.033Z,6.20
2023-01-11T00:15:15.323Z,6.20
2023-01-11T00:17:42.013Z,6.30
2023-01-11T00:20:10.490Z,6.30
2023-01-11T00:22:37.536Z,6.30
2023-01-11T00:25:04.762Z,6.30
2023-01-11T00:27:31.879Z,6.30
2023-01-11T00:29:58.556Z,6.30
2023-01-11T00:32:27.252Z,6.30
2023-01-11T00:34:54.555Z,6.30
2023-01-11T00:37:21.514Z,6.20
2023-01-11T00:39:48.209Z,6.20
2023-01-11T00:42:33.738Z,6.20
2023-01-11T00:45:19.274Z,6.20
2023-01-11T00:47:58.082Z,6.20
2023-01-11T00:50:30.002Z,6.20
2023-01-11T00:52:58.247Z,6.20
2023-01-11T00:55:25.444Z,6.20
2023-01-11T00:57:52.359Z,6.10
2023-01-11T01:00:20.493Z,6.10
2023-01-11T01:02:48.112Z,6.10
2023-01-11T01:05:15.540Z,6.00
2023-01-11T01:07:42.464Z,6.00
2023-01-11T01:10:10.867Z,6.00
2023-01-11T01:12:56.570Z,6.00
2023-01-11T01:15:23.758Z,6.00
2023-01-11T01:17:54.867Z,6.00
2023-01-11T01:20:23.478Z,6.00
2023-01-11T01:22:51.020Z,6.00
2023-01-11T01:25:18.158Z,6.10
2023-01-11T01:27:45.028Z,6.00
2023-01-11T01:30:12.279Z,6.10
2023-01-11T01:32:39.873Z,6.10
2023-01-11T01:35:07.168Z,6.10
2023-01-11T01:37:34.161Z,6.10
2023-01-11T01:40:01.099Z,6.20
2023-01-11T01:42:27.800Z,6.10
2023-01-11T01:45:00.765Z,6.10
2023-01-11T01:47:56.546Z,6.10
2023-01-11T01:50:29.393Z,6.10
2023-01-11T01:53:02.316Z,6.10
2023-01-11T01:55:34.142Z,6.20
2023-01-11T01:58:04.424Z,6.10
2023-01-11T02:00:31.625Z,6.10
2023-01-11T02:03:00.487Z,6.10
2023-01-11T02:05:28.146Z,6.10
2023-01-11T02:07:57.455Z,6.10
2023-01-11T02:10:27.793Z,6.10
2023-01-11T02:13:08.877Z,6.10
2023-01-11T02:15:36.879Z,6.10
2023-01-11T02:18:04.179Z,6.20
2023-01-11T02:20:49.475Z,6.10
2023-01-11T02:23:25.111Z,6.20
2023-01-11T02:26:19.729Z,6.20
2023-01-11T02:29:09.378Z,6.10
2023-01-11T02:31:50.011Z,6.10
2023-01-11T02:34:41.719Z,6.10
2023-01-11T02:37:34.733Z,6.10
2023-01-11T02:40:40.417Z,6.10
2023-01-11T02:43:33.757Z,6.10
2023-01-11T02:46:20.689Z,6.10
2023-01-11T02:49:10.802Z,6.10
2023-01-11T02:51:50.243Z,6.10
2023-01-11T02:54:19.773Z,6.10
2023-01-11T02:56:50.229Z,6.10
2023-01-11T02:59:22.095Z,6.10
2023-01-11T03:01:53.028Z,6.10
2023-01-11T03:04:33.558Z,6.10
2023-01-11T03:07:25.009Z,6.10
2023-01-11T03:10:09.872Z,6.00
2023-01-11T03:13:11.265Z,6.00
2023-01-11T03:15:53.707Z,6.00
2023-01-11T03:18:46.458Z,6.00
2023-01-11T03:21:30.134Z,5.90
2023-01-11T03:24:08.769Z,5.90
2023-01-11T03:27:06.074Z,6.00
2023-01-11T03:29:40.054Z,6.00
2023-01-11T03:32:12.158Z,6.00
2023-01-11T03:34:54.367Z,6.10
2023-01-11T03:37:27.364Z,6.10
2023-01-11T03:40:16.990Z,6.10
2023-01-11T03:43:06.144Z,6.10
2023-01-11T03:45:37.338Z,6.10
2023-01-11T03:48:09.243Z,6.10
2023-01-11T03:50:36.139Z,6.10
2023-01-11T03:53:06.780Z,6.00
2023-01-11T03:55:40.592Z,6.00
2023-01-11T03:58:08.924Z,6.00
2023-01-11T04:00:37.551Z,6.00
2023-01-11T04:03:04.873Z,5.90
2023-01-11T04:05:32.809Z,6.00
2023-01-11T04:07:59.462Z,5.90
2023-01-11T04:10:26.146Z,5.90
2023-01-11T04:12:52.863Z,5.90
2023-01-11T04:15:19.634Z,5.90
2023-01-11T04:17:46.332Z,5.90
2023-01-11T04:20:13.159Z,5.90
2023-01-11T04:22:39.824Z,5.90
2023-01-11T04:25:08.823Z,5.90
2023-01-11T04:27:35.706Z,5.90
2023-01-11T04:30:02.599Z,5.90
2023-01-11T04:32:29.259Z,5.90
2023-01-11T04:34:55.937Z,5.90
2023-01-11T04:37:22.605Z,6.00
2023-01-11T04:39:49.253Z,6.00
2023-01-11T04:42:18.811Z,6.00
2023-01-11T04:44:49.679Z,6.00
2023-01-11T04:47:17.719Z,6.00
2023-01-11T04:49:45.502Z,6.00
2023-01-11T04:52:13.958Z,6.00
2023-01-11T04:54:41.066Z,6.00
2023-01-11T04:57:10.710Z,6.00
2023-01-11T04:59:37.411Z,6.00
2023-01-11T05:02:04.195Z,6.00
2023-01-11T05:04:31.358Z,6.00
2023-01-11T05:06:58.101Z,6.00
2023-01-11T05:09:24.939Z,6.00
2023-01-11T05:11:51.611Z,6.00
2023-01-11T05:14:18.512Z,6.00
2023-01-11T05:16:45.234Z,6.10
2023-01-11T05:19:12.638Z,6.10
2023-01-11T05:21:41.493Z,6.10
2023-01-11T05:24:12.636Z,6.10
2023-01-11T05:26:41.668Z,6.10
2023-01-11T05:29:16.106Z,6.10
2023-01-11T05:31:43.134Z,6.10
2023-01-11T05:34:12.926Z,6.10
2023-01-11T05:36:40.480Z,6.20
2023-01-11T05:39:07.225Z,6.20
2023-01-11T05:41:34.696Z,6.20
2023-01-11T05:44:20.207Z,6.20
2023-01-11T05:46:47.007Z,6.30
2023-01-11T05:49:14.264Z,6.30
2023-01-11T05:51:42.266Z,6.30
2023-01-11T05:54:13.157Z,6.30
2023-01-11T05:56:40.355Z,6.40
2023-01-11T05:59:07.130Z,6.40
2023-01-11T06:01:34.058Z,6.40
2023-01-11T06:04:04.094Z,6.50
2023-01-11T06:06:30.835Z,6.50
2023-01-11T06:08:57.539Z,6.50
2023-01-11T06:11:24.167Z,6.50
2023-01-11T06:13:50.823Z,6.60
2023-01-11T06:16:20.108Z,6.60
2023-01-11T06:18:48.950Z,6.60
2023-01-11T06:21:16.817Z,6.60
2023-01-11T06:23:46.474Z,6.60
2023-01-11T06:26:16.313Z,6.70
2023-01-11T06:28:43.977Z,6.70
2023-01-11T06:31:11.365Z,6.70
2023-01-11T06:33:38.851Z,6.80
2023-01-11T06:36:10.902Z,6.80
2023-01-11T06:38:38.457Z,6.80
2023-01-11T06:41:08.302Z,6.80
2023-01-11T06:43:36.275Z,6.90
2023-01-11T06:46:03.092Z,6.90
2023-01-11T06:48:30.039Z,6.90
2023-01-11T06:50:58.287Z,6.80
2023-01-11T06:53:28.619Z,6.90
2023-01-11T06:55:58.145Z,6.90
2023-01-11T06:58:26.055Z,6.90
2023-01-11T07:00:54.343Z,6.90
2023-01-11T07:03:23.914Z,6.90
2023-01-11T07:05:51.321Z,7.00
2023-01-11T07:08:18.322Z,7.00
2023-01-11T07:10:45.816Z,7.00
2023-01-11T07:13:12.599Z,7.00
2023-01-11T07:15:39.352Z,7.10
2023-01-11T07:18:06.127Z,7.10
2023-01-11T07:20:32.807Z,7.10
2023-01-11T07:23:00.923Z,7.10
2023-01-11T07:25:29.069Z,7.10
2023-01-11T07:28:00.599Z,7.20
2023-01-11T07:30:29.584Z,7.20
2023-01-11T07:32:59.691Z,7.20
2023-01-11T07:35:29.005Z,7.20
2023-01-11T07:37:56.006Z,7.20
2023-01-11T07:40:22.750Z,7.30
2023-01-11T07:43:12.016Z,7.20
2023-01-11T07:45:45.809Z,7.30
2023-01-11T07:48:14.242Z,7.30
2023-01-11T07:50:44.482Z,7.30
2023-01-11T07:53:12.336Z,7.30
2023-01-11T07:55:39.940Z,7.30
2023-01-11T07:58:08.613Z,7.40
2023-01-11T08:00:35.388Z,7.40
2023-01-11T08:03:02.752Z,7.40
2023-01-11T08:05:29.971Z,7.30
2023-01-11T08:07:56.665Z,7.40
2023-01-11T08:10:23.436Z,7.30
2023-01-11T08:13:08.838Z,7.30
2023-01-11T08:15:42.493Z,7.30
2023-01-11T08:18:11.487Z,7.40
2023-01-11T08:20:39.089Z,7.40
2023-01-11T08:23:07.818Z,7.40
2023-01-11T08:25:34.934Z,7.40
2023-01-11T08:28:04.268Z,7.40
2023-01-11T08:30:31.040Z,7.40
2023-01-11T08:33:00.581Z,7.50
2023-01-11T08:35:27.351Z,7.50
2023-01-11T08:37:54.226Z,7.50
2023-01-11T08:40:23.710Z,7.50
2023-01-11T08:42:56.978Z,7.50
2023-01-11T08:45:24.021Z,7.60
2023-01-11T08:47:51.848Z,7.60
2023-01-11T08:50:19.691Z,7.60
2023-01-11T08:52:47.945Z,7.60
2023-01-11T08:55:14.770Z,7.60
2023-01-11T08:57:41.432Z,7.60
2023-01-11T09:00:09.064Z,7.60
2023-01-11T09:02:36.003Z,7.70
2023-01-11T09:05:02.954Z,7.70
2023-01-11T09:07:29.682Z,7.70
2023-01-11T09:09:56.327Z,7.70
2023-01-11T09:12:23.001Z,7.70
2023-01-11T09:14:49.730Z,7.70
2023-01-11T09:17:16.411Z,7.80
2023-01-11T09:19:43.064Z,7.80
2023-01-11T09:22:09.741Z,7.80
2023-01-11T09:24:36.409Z,7.80
2023-01-11T09:27:04.783Z,7.80
2023-01-11T09:29:32.075Z,7.90
2023-01-11T09:31:59.121Z,7.90
2023-01-11T09:34:27.283Z,8.00
2023-01-11T09:36:56.067Z,8.10
2023-01-11T09:39:26.275Z,8.10
2023-01-11T09:42:08.836Z,8.20
2023-01-11T09:44:36.734Z,8.20
2023-01-11T09:47:15.663Z,8.30
2023-01-11T09:49:47.137Z,8.40
2023-01-11T09:52:41.083Z,8.50
2023-01-11T09:55:21.268Z,8.50
2023-01-11T09:58:00.731Z,8.60
2023-01-11T10:00:51.036Z,8.60
2023-01-11T10:03:48.855Z,8.70
2023-01-11T10:06:20.738Z,8.70
2023-01-11T10:18:31.221Z,8.70
2023-01-11T10:18:32.087Z,8.70
2023-01-11T10:21:12.006Z,8.70
2023-01-11T10:24:35.094Z,8.70
2023-01-11T10:27:03.840Z,8.80
2023-01-11T10:30:07.088Z,8.80
2023-01-11T10:33:10.109Z,8.80
2023-01-11T10:35:59.852Z,8.80
2023-01-11T10:38:59.806Z,8.70
2023-01-11T10:41:38.708Z,8.70
2023-01-11T10:44:08.446Z,8.70
2023-01-11T10:46:41.416Z,8.70
2023-01-11T10:49:43.998Z,8.70
2023-01-11T10:52:26.292Z,8.70
2023-01-11T10:54:55.977Z,8.70
2023-01-11T10:57:25.654Z,8.80
2023-01-11T11:00:15.898Z,8.70
2023-01-11T11:03:01.846Z,8.70
2023-01-11T11:05:37.425Z,8.70
2023-01-11T11:08:40.597Z,8.80
2023-01-11T11:11:18.904Z,8.80
2023-01-11T11:14:10.414Z,8.80
2023-01-11T11:16:39.856Z,8.80
2023-01-11T11:19:12.429Z,8.80
2023-01-11T11:21:41.998Z,8.80
2023-01-11T11:24:22.773Z,8.80
2023-01-11T11:27:14.626Z,8.80
2023-01-11T11:29:48.061Z,8.80
2023-01-11T11:32:22.754Z,8.90
2023-01-11T11:34:50.506Z,8.90
2023-01-11T11:37:26.941Z,8.90
2023-01-11T11:39:54.703Z,8.90
2023-01-11T11:42:22.607Z,9.00
2023-01-11T11:45:08.711Z,9.00
2023-01-11T11:47:36.575Z,9.00
2023-01-11T11:50:43.190Z,9.00
2023-01-11T11:53:30.524Z,9.00
2023-01-11T11:55:57.887Z,9.00
2023-01-11T11:58:26.648Z,9.00
2023-01-11T12:00:53.862Z,9.00
2023-01-11T12:03:28.235Z,9.00
2023-01-11T12:06:02.639Z,9.00
2023-01-11T12:08:32.080Z,9.00
2023-01-11T12:11:07.706Z,9.00
2023-01-11T12:13:37.401Z,9.00
2023-01-11T12:16:07.352Z,9.00
2023-01-11T12:18:37.082Z,9.00
2023-01-11T12:21:30.363Z,9.00
2023-01-11T12:24:19.019Z,9.00
2023-01-11T12:27:02.624Z,9.00
2023-01-11T12:29:59.903Z,9.00
2023-01-11T12:33:05.955Z,9.00
2023-01-11T12:35:39.476Z,9.00
2023-01-11T12:38:15.133Z,9.00
2023-01-11T12:41:43.673Z,9.00
2023-01-11T12:44:41.523Z,8.90
2023-01-11T12:47:35.581Z,8.90
2023-01-11T12:50:19.404Z,8.90
2023-01-11T12:53:12.040Z,8.80
2023-01-11T12:56:09.811Z,8.80
2023-01-11T12:58:45.023Z,8.80
2023-01-11T13:01:35.893Z,8.80
2023-01-11T13:04:12.076Z,8.80
2023-01-11T13:06:49.627Z,8.80
2023-01-11T13:09:44.831Z,8.80
2023-01-11T13:12:14.599Z,8.90
2023-01-11T13:14:50.441Z,8.80
2023-01-11T13:17:26.474Z,8.90
2023-01-11T13:19:59.233Z,8.90
2023-01-11T13:22:30.362Z,8.90
2023-01-11T13:24:59.559Z,8.90
2023-01-11T13:27:28.759Z,8.90
2023-01-11T13:29:56.646Z,8.90
2023-01-11T13:32:26.935Z,8.90
2023-01-11T13:35:13.644Z,9.00
2023-01-11T13:37:50.650Z,9.00
2023-01-11T13:40:25.474Z,9.00
2023-01-11T13:42:58.069Z,9.00
2023-01-11T13:45:35.230Z,9.00
2023-01-11T13:48:27.214Z,9.00
2023-01-11T13:51:12.816Z,9.00
2023-01-11T13:53:46.909Z,9.00
2023-01-11T13:56:24.198Z,9.00
2023-01-11T13:58:53.945Z,9.00
2023-01-11T14:01:36.051Z,9.00
2023-01-11T14:04:25.421Z,9.00
2023-01-11T14:07:33.752Z,9.00
2023-01-11T14:10:00.495Z,9.00
2023-01-11T14:12:32.898Z,9.10
2023-01-11T14:15:11.774Z,9.00
2023-01-11T14:17:56.973Z,9.00
2023-01-11T14:20:40.226Z,9.00
2023-01-11T14:23:20.992Z,9.00
2023-01-11T14:26:25.259Z,9.10
2023-01-11T14:29:07.034Z,9.10
2023-01-11T14:31:52.511Z,9.20
2023-01-11T14:34:25.144Z,9.30
2023-01-11T14:37:19.087Z,9.30
2023-01-11T14:40:12.119Z,9.40
2023-01-11T14:43:02.796Z,9.40
2023-01-11T14:45:29.518Z,9.50
2023-01-11T14:48:20.418Z,9.50
2023-01-11T14:51:09.658Z,9.50
2023-01-11T14:53:43.180Z,9.60
2023-01-11T14:56:37.401Z,9.60
2023-01-11T14:59:29.993Z,9.60
2023-01-11T15:02:14.012Z,9.60
2023-01-11T15:04:54.650Z,9.60
2023-01-11T15:07:29.454Z,9.60
2023-01-11T15:10:03.024Z,9.60
2023-01-11T15:12:38.160Z,9.60
2023-01-11T15:15:16.861Z,9.60
2023-01-11T15:18:02.279Z,9.60
2023-01-11T15:20:29.250Z,9.60
2023-01-11T15:23:02.272Z,9.60
2023-01-11T15:25:33.557Z,9.60
2023-01-11T15:28:04.219Z,9.60
2023-01-11T15:30:30.870Z,9.60
2023-01-11T15:33:19.365Z,9.60
2023-01-11T15:35:55.243Z,9.60
2023-01-11T15:38:52.150Z,9.50
2023-01-11T15:42:00.421Z,9.60
2023-01-11T15:44:45.714Z,9.50
2023-01-11T15:47:18.064Z,9.50
2023-01-11T15:50:32.302Z,9.60
2023-01-11T15:52:58.951Z,9.60
2023-01-11T15:55:48.094Z,9.50
2023-01-11T15:58:42.847Z,9.50
2023-01-11T16:01:58.596Z,9.50
2023-01-11T16:04:30.844Z,9.50
2023-01-11T16:07:11.831Z,9.40
2023-01-11T16:10:15.313Z,9.40
2023-01-11T16:13:19.697Z,9.40
2023-01-11T16:15:55.182Z,9.40
2023-01-11T16:18:27.846Z,9.40
2023-01-11T16:21:34.619Z,9.40
2023-01-11T16:24:21.982Z,9.40
2023-01-11T16:27:00.380Z,9.40
2023-01-11T16:29:30.649Z,9.40
2023-01-11T16:32:01.181Z,9.40
2023-01-11T16:34:30.538Z,9.40
2023-01-11T16:36:57.813Z,9.40
2023-01-11T16:39:30.112Z,9.40
2023-01-11T16:42:06.712Z,9.40
2023-01-11T16:44:52.069Z,9.40
2023-01-11T16:47:20.590Z,9.30
2023-01-11T16:49:49.682Z,9.30
2023-01-11T16:52:28.611Z,9.30
2023-01-11T16:54:57.077Z,9.30
2023-01-11T16:57:30.886Z,9.30
2023-01-11T17:00:05.652Z,9.20
2023-01-11T17:02:37.931Z,9.20
2023-01-11T17:05:18.870Z,9.20
2023-01-11T17:07:45.682Z,9.20
2023-01-11T17:10:31.067Z,9.20
2023-01-11T17:13:29.500Z,9.10
2023-01-11T17:16:06.412Z,9.10
2023-01-11T17:18:33.213Z,9.10
2023-01-11T17:20:59.935Z,9.10
2023-01-11T17:23:26.685Z,9.00
2023-01-11T17:25:57.357Z,9.10
2023-01-11T17:28:24.465Z,9.00
2023-01-11T17:30:53.339Z,9.10
2023-01-11T17:33:32.045Z,9.00
2023-01-11T17:36:00.190Z,9.00
2023-01-11T17:38:28.496Z,9.00
2023-01-11T17:41:01.027Z,9.00
2023-01-11T17:43:48.439Z,9.00
2023-01-11T17:46:26.615Z,9.00
2023-01-11T17:48:58.907Z,9.00
2023-01-11T17:51:28.272Z,9.00
2023-01-11T17:53:55.123Z,9.00
2023-01-11T17:56:41.614Z,9.00
2023-01-11T17:59:11.413Z,8.90
2023-01-11T18:01:38.515Z,8.90
2023-01-11T18:04:05.617Z,8.90
2023-01-11T18:06:41.046Z,8.90
2023-01-11T18:09:29.415Z,8.80
2023-01-11T18:12:13.249Z,8.80
2023-01-11T18:14:53.028Z,8.90
2023-01-11T18:17:38.769Z,8.80
2023-01-11T18:20:14.875Z,8.90
2023-01-11T18:22:42.964Z,8.90
2023-01-11T18:25:30.631Z,8.90
2023-01-11T18:28:18.787Z,8.90
2023-01-11T18:30:53.758Z,8.90
2023-01-11T18:33:23.162Z,8.90
2023-01-11T18:36:03.471Z,8.80
2023-01-11T18:38:34.791Z,8.90
2023-01-11T18:41:26.651Z,8.80
2023-01-11T18:43:54.358Z,8.80
2023-01-11T18:46:21.102Z,8.90
2023-01-11T18:48:47.875Z,8.90
2023-01-11T18:51:27.868Z,8.80
2023-01-11T18:53:54.676Z,8.90
2023-01-11T18:56:21.347Z,8.80
2023-01-11T18:58:48.083Z,8.80
2023-01-11T19:01:14.900Z,8.80
2023-01-11T19:03:43.680Z,8.80
2023-01-11T19:06:19.252Z,8.80
2023-01-11T19:08:45.965Z,8.80
2023-01-11T19:11:14.847Z,8.80
2023-01-11T19:13:41.504Z,8.80
2023-01-11T19:16:08.988Z,8.70
2023-01-11T19:18:36.155Z,8.70
2023-01-11T19:21:06.420Z,8.70
2023-01-11T19:23:34.216Z,8.70
2023-01-11T19:26:02.135Z,8.70
2023-01-11T19:28:29.347Z,8.70
2023-01-11T19:30:56.072Z,8.70
2023-01-11T19:33:22.891Z,8.70
2023-01-11T19:35:49.643Z,8.70
2023-01-11T19:38:18.445Z,8.70
2023-01-11T19:40:46.442Z,8.60
2023-01-11T19:43:14.733Z,8.60
2023-01-11T19:45:41.438Z,8.60
2023-01-11T19:48:08.241Z,8.60
2023-01-11T19:50:34.920Z,8.60
2023-01-11T19:53:01.582Z,8.60
2023-01-11T19:55:28.325Z,8.60
2023-01-11T19:57:54.980Z,8.60
2023-01-11T20:00:21.771Z,8.60
2023-01-11T20:02:48.439Z,8.50
2023-01-11T20:05:15.254Z,8.50
2023-01-11T20:07:42.013Z,8.50
2023-01-11T20:10:09.362Z,8.50
2023-01-11T20:12:36.014Z,8.50
2023-01-11T20:15:03.373Z,8.40
2023-01-11T20:17:30.227Z,8.50
2023-01-11T20:19:57.003Z,8.40
2023-01-11T20:22:24.419Z,8.40
2023-01-11T20:24:51.542Z,8.40
2023-01-11T20:27:18.513Z,8.40
2023-01-11T20:29:45.701Z,8.40
2023-01-11T20:32:39.134Z,8.40
2023-01-11T20:35:03.911Z,8.40
2023-01-11T20:37:30.629Z,8.40
2023-01-11T20:39:57.261Z,8.40
2023-01-11T20:42:23.907Z,8.40
2023-01-11T20:44:50.622Z,8.30
2023-01-11T20:47:17.280Z,8.30
2023-01-11T20:49:43.985Z,8.30
2023-01-11T20:52:10.620Z,8.30
2023-01-11T20:54:37.523Z,8.30
2023-01-11T20:57:08.093Z,8.30
2023-01-11T20:59:34.861Z,8.30
2023-01-11T21:02:01.621Z,8.30
2023-01-11T21:04:28.386Z,8.30
2023-01-11T21:06:55.105Z,8.20
2023-01-11T21:09:21.777Z,8.20
2023-01-11T21:11:53.911Z,8.20
2023-01-11T21:14:22.007Z,8.30
2023-01-11T21:16:48.888Z,8.30
2023-01-11T21:19:16.161Z,8.30
2023-01-11T21:21:43.500Z,8.30
2023-01-11T21:24:13.618Z,8.30
2023-01-11T21:26:42.208Z,8.30
2023-01-11T21:29:10.763Z,8.30
2023-01-11T21:31:38.866Z,8.30
2023-01-11T21:34:05.624Z,8.30
2023-01-11T21:36:32.881Z,8.30
2023-01-11T21:39:00.249Z,8.40
2023-01-11T21:41:48.013Z,8.40
2023-01-11T21:44:15.740Z,8.40
2023-01-11T21:46:43.452Z,8.40
2023-01-11T21:49:11.356Z,8.40
2023-01-11T21:51:39.787Z,8.30
2023-01-11T21:54:09.840Z,8.30
2023-01-11T21:56:37.323Z,8.30
2023-01-11T21:59:04.373Z,8.30
2023-01-11T22:01:31.302Z,8.30
2023-01-11T22:03:58.274Z,8.30
2023-01-11T22:06:25.039Z,8.30
2023-01-11T22:08:52.040Z,8.20
2023-01-11T22:11:18.857Z,8.20
2023-01-11T22:13:45.627Z,8.20
2023-01-11T22:16:15.221Z,8.20
2023-01-11T22:18:42.629Z,8.10
2023-01-11T22:21:12.610Z,8.10
2023-01-11T22:23:39.544Z,8.10
2023-01-11T22:26:11.101Z,8.10
2023-01-11T22:28:56.754Z,8.00
2023-01-11T22:31:24.576Z,8.10
2023-01-11T22:33:51.635Z,8.00
2023-01-11T22:36:18.479Z,8.00
2023-01-11T22:38:45.226Z,7.90
2023-01-11T22:41:12.809Z,7.90
2023-01-11T22:43:39.770Z,7.90
2023-01-11T22:46:06.533Z,7.90
2023-01-11T22:48:33.277Z,7.90
2023-01-11T22:50:59.951Z,7.90
2023-01-11T22:53:26.636Z,7.80
2023-01-11T22:55:53.319Z,7.80
2023-01-11T22:58:19.981Z,7.80
2023-01-11T23:00:46.692Z,7.80
2023-01-11T23:03:14.710Z,7.70
2023-01-11T23:05:46.183Z,7.70
2023-01-11T23:08:14.013Z,7.60
2023-01-11T23:10:41.050Z,7.60
2023-01-11T23:13:29.695Z,7.60
2023-01-11T23:15:56.392Z,7.60
2023-01-11T23:18:23.093Z,7.50
2023-01-11T23:20:49.772Z,7.50
2023-01-11T23:23:16.559Z,7.50
2023-01-11T23:25:43.212Z,7.40
2023-01-11T23:28:09.861Z,7.40
2023-01-11T23:30:37.193Z,7.40
2023-01-11T23:33:03.965Z,7.30
2023-01-11T23:35:30.629Z,7.30
2023-01-11T23:37:57.339Z,7.30
2023-01-11T23:40:24.015Z,7.30
2023-01-11T23:42:50.671Z,7.30
2023-01-11T23:45:17.371Z,7.30
2023-01-11T23:47:44.037Z,7.30
2023-01-11T23:50:10.734Z,7.40
2023-01-11T23:52:37.441Z,7.40
2023-01-11T23:55:04.366Z,7.40
2023-01-11T23:57:31.116Z,7.50
2023-01-11T23:59:57.820Z,7.50
